sensor_id;sensor_type;location;lat;lon;timestamp;temperature;humidity
21275;DHT22;36472;52.170;20.884;2022-11-20T00:01:38;13.10;39.10
21275;DHT22;36472;52.170;20.884;2022-11-20T00:04:09;13.10;39.20
21275;DHT22;36472;52.170;20.884;2022-11-20T00:06:40;13.00;39.10
21275;DHT22;36472;52.170;20.884;2022-11-20T00:09:10;13.00;39.00
21275;DHT22;36472;52.170;20.884;2022-11-20T00:11:39;13.00;39.30
21275;DHT22;36472;52.170;20.884;2022-11-20T00:14:09;13.00;39.20
21275;DHT22;36472;52.170;20.884;2022-11-20T00:16:39;12.90;39.20
21275;DHT22;36472;52.170;20.884;2022-11-20T00:19:07;12.90;39.40
21275;DHT22;36472;52.170;20.884;2022-11-20T00:21:36;12.90;39.50
21275;DHT22;36472;52.170;20.884;2022-11-20T00:24:08;12.90;39.40
21275;DHT22;36472;52.170;20.884;2022-11-20T00:26:37;12.90;39.30
21275;DHT22;36472;52.170;20.884;2022-11-20T00:29:09;12.90;39.40
21275;DHT22;36472;52.170;20.884;2022-11-20T00:31:38;12.80;39.60
21275;DHT22;36472;52.170;20.884;2022-11-20T00:34:07;12.80;40.40
21275;DHT22;36472;52.170;20.884;2022-11-20T00:36:37;12.80;39.80
21275;DHT22;36472;52.170;20.884;2022-11-20T00:39:07;12.90;40.20
21275;DHT22;36472;52.170;20.884;2022-11-20T00:41:36;12.90;40.80
21275;DHT22;36472;52.170;20.884;2022-11-20T00:44:04;12.90;40.80
21275;DHT22;36472;52.170;20.884;2022-11-20T00:46:33;13.00;40.30
21275;DHT22;36472;52.170;20.884;2022-11-20T00:49:02;13.00;40.00
21275;DHT22;36472;52.170;20.884;2022-11-20T00:51:31;13.00;39.80
21275;DHT22;36472;52.170;20.884;2022-11-20T00:54:00;13.00;40.00
21275;DHT22;36472;52.170;20.884;2022-11-20T00:56:30;13.10;40.30
21275;DHT22;36472;52.170;20.884;2022-11-20T00:59:00;13.10;40.10
21275;DHT22;36472;52.170;20.884;2022-11-20T01:01:29;13.10;39.90
21275;DHT22;36472;52.170;20.884;2022-11-20T01:03:59;13.10;39.90
21275;DHT22;36472;52.170;20.884;2022-11-20T01:06:30;13.20;39.90
21275;DHT22;36472;52.170;20.884;2022-11-20T01:09:03;13.20;39.70
21275;DHT22;36472;52.170;20.884;2022-11-20T01:11:36;13.20;40.00
21275;DHT22;36472;52.170;20.884;2022-11-20T01:14:09;13.20;39.60
21275;DHT22;36472;52.170;20.884;2022-11-20T01:16:41;13.10;39.70
21275;DHT22;36472;52.170;20.884;2022-11-20T01:19:13;13.10;39.90
21275;DHT22;36472;52.170;20.884;2022-11-20T01:21:46;13.10;39.80
21275;DHT22;36472;52.170;20.884;2022-11-20T01:24:18;13.10;40.00
21275;DHT22;36472;52.170;20.884;2022-11-20T01:26:51;13.10;39.70
21275;DHT22;36472;52.170;20.884;2022-11-20T01:29:21;13.20;39.70
21275;DHT22;36472;52.170;20.884;2022-11-20T01:31:52;13.10;40.40
21275;DHT22;36472;52.170;20.884;2022-11-20T01:34:22;13.00;39.70
21275;DHT22;36472;52.170;20.884;2022-11-20T01:36:52;13.10;39.90
21275;DHT22;36472;52.170;20.884;2022-11-20T01:39:23;13.00;39.70
21275;DHT22;36472;52.170;20.884;2022-11-20T01:41:55;13.00;39.80
21275;DHT22;36472;52.170;20.884;2022-11-20T01:44:52;13.00;39.90
21275;DHT22;36472;52.170;20.884;2022-11-20T01:47:27;12.90;40.00
21275;DHT22;36472;52.170;20.884;2022-11-20T01:50:05;13.00;40.10
21275;DHT22;36472;52.170;20.884;2022-11-20T01:52:44;12.90;40.30
21275;DHT22;36472;52.170;20.884;2022-11-20T01:55:19;13.00;40.20
21275;DHT22;36472;52.170;20.884;2022-11-20T01:57:53;13.00;40.20
21275;DHT22;36472;52.170;20.884;2022-11-20T02:00:23;13.00;40.00
21275;DHT22;36472;52.170;20.884;2022-11-20T02:02:55;13.00;40.60
21275;DHT22;36472;52.170;20.884;2022-11-20T02:05:30;13.00;40.10
21275;DHT22;36472;52.170;20.884;2022-11-20T02:08:05;13.00;39.90
21275;DHT22;36472;52.170;20.884;2022-11-20T02:10:35;13.10;40.10
21275;DHT22;36472;52.170;20.884;2022-11-20T02:13:05;13.10;40.00
21275;DHT22;36472;52.170;20.884;2022-11-20T02:15:52;13.10;39.90
21275;DHT22;36472;52.170;20.884;2022-11-20T02:18:21;13.20;39.90
21275;DHT22;36472;52.170;20.884;2022-11-20T02:20:55;13.20;39.80
21275;DHT22;36472;52.170;20.884;2022-11-20T02:23:34;13.20;39.80
21275;DHT22;36472;52.170;20.884;2022-11-20T02:26:11;13.30;40.50
21275;DHT22;36472;52.170;20.884;2022-11-20T02:28:44;13.40;40.00
21275;DHT22;36472;52.170;20.884;2022-11-20T02:31:12;13.40;39.70
21275;DHT22;36472;52.170;20.884;2022-11-20T02:33:41;13.50;39.70
21275;DHT22;36472;52.170;20.884;2022-11-20T02:36:12;13.50;39.60
21275;DHT22;36472;52.170;20.884;2022-11-20T02:38:44;13.50;40.30
21275;DHT22;36472;52.170;20.884;2022-11-20T02:41:14;13.60;39.80
21275;DHT22;36472;52.170;20.884;2022-11-20T02:43:43;13.60;39.60
21275;DHT22;36472;52.170;20.884;2022-11-20T02:46:12;13.60;39.60
21275;DHT22;36472;52.170;20.884;2022-11-20T02:48:40;13.70;39.70
21275;DHT22;36472;52.170;20.884;2022-11-20T02:51:09;13.70;39.60
21275;DHT22;36472;52.170;20.884;2022-11-20T02:53:38;13.70;39.30
21275;DHT22;36472;52.170;20.884;2022-11-20T02:56:07;13.70;39.40
21275;DHT22;36472;52.170;20.884;2022-11-20T02:58:37;13.80;40.20
21275;DHT22;36472;52.170;20.884;2022-11-20T03:01:06;13.80;39.60
21275;DHT22;36472;52.170;20.884;2022-11-20T03:03:35;13.70;39.60
21275;DHT22;36472;52.170;20.884;2022-11-20T03:06:04;13.70;39.60
21275;DHT22;36472;52.170;20.884;2022-11-20T03:08:33;13.60;39.60
21275;DHT22;36472;52.170;20.884;2022-11-20T03:11:04;13.70;39.60
21275;DHT22;36472;52.170;20.884;2022-11-20T03:13:35;13.70;39.70
21275;DHT22;36472;52.170;20.884;2022-11-20T03:16:10;13.70;39.70
21275;DHT22;36472;52.170;20.884;2022-11-20T03:18:41;13.70;39.60
21275;DHT22;36472;52.170;20.884;2022-11-20T03:21:11;13.60;39.60
21275;DHT22;36472;52.170;20.884;2022-11-20T03:23:41;13.50;39.70
21275;DHT22;36472;52.170;20.884;2022-11-20T03:26:11;13.50;39.80
21275;DHT22;36472;52.170;20.884;2022-11-20T03:28:49;13.40;40.00
21275;DHT22;36472;52.170;20.884;2022-11-20T03:31:21;13.20;40.80
21275;DHT22;36472;52.170;20.884;2022-11-20T03:33:52;13.10;40.50
21275;DHT22;36472;52.170;20.884;2022-11-20T03:36:21;13.10;40.70
21275;DHT22;36472;52.170;20.884;2022-11-20T03:38:50;13.10;40.80
21275;DHT22;36472;52.170;20.884;2022-11-20T03:41:21;13.00;40.80
21275;DHT22;36472;52.170;20.884;2022-11-20T03:43:54;13.00;41.00
21275;DHT22;36472;52.170;20.884;2022-11-20T03:46:24;13.00;41.70
21275;DHT22;36472;52.170;20.884;2022-11-20T03:48:54;12.90;41.00
21275;DHT22;36472;52.170;20.884;2022-11-20T03:51:25;12.90;41.10
21275;DHT22;36472;52.170;20.884;2022-11-20T03:53:59;12.90;41.20
21275;DHT22;36472;52.170;20.884;2022-11-20T03:56:31;12.80;41.20
21275;DHT22;36472;52.170;20.884;2022-11-20T03:59:02;12.80;41.00
21275;DHT22;36472;52.170;20.884;2022-11-20T04:01:33;12.70;41.20
21275;DHT22;36472;52.170;20.884;2022-11-20T04:04:03;12.70;41.40
21275;DHT22;36472;52.170;20.884;2022-11-20T04:06:34;12.70;41.40
21275;DHT22;36472;52.170;20.884;2022-11-20T04:09:05;12.70;41.40
21275;DHT22;36472;52.170;20.884;2022-11-20T04:11:35;12.60;41.40
21275;DHT22;36472;52.170;20.884;2022-11-20T04:14:14;12.60;41.40
21275;DHT22;36472;52.170;20.884;2022-11-20T04:16:43;12.50;41.40
21275;DHT22;36472;52.170;20.884;2022-11-20T04:19:15;12.50;41.40
21275;DHT22;36472;52.170;20.884;2022-11-20T04:21:45;12.50;41.50
21275;DHT22;36472;52.170;20.884;2022-11-20T04:24:13;12.50;41.50
21275;DHT22;36472;52.170;20.884;2022-11-20T04:26:42;12.50;41.70
21275;DHT22;36472;52.170;20.884;2022-11-20T04:29:13;12.50;41.60
21275;DHT22;36472;52.170;20.884;2022-11-20T04:31:42;12.50;41.60
21275;DHT22;36472;52.170;20.884;2022-11-20T04:34:11;12.50;41.60
21275;DHT22;36472;52.170;20.884;2022-11-20T04:36:40;12.40;41.50
21275;DHT22;36472;52.170;20.884;2022-11-20T04:39:14;12.40;41.50
21275;DHT22;36472;52.170;20.884;2022-11-20T04:41:43;12.40;41.60
21275;DHT22;36472;52.170;20.884;2022-11-20T04:44:13;12.40;41.80
21275;DHT22;36472;52.170;20.884;2022-11-20T04:46:42;12.30;41.70
21275;DHT22;36472;52.170;20.884;2022-11-20T04:49:11;12.30;41.60
21275;DHT22;36472;52.170;20.884;2022-11-20T04:51:40;12.20;41.60
21275;DHT22;36472;52.170;20.884;2022-11-20T04:54:11;12.20;41.70
21275;DHT22;36472;52.170;20.884;2022-11-20T04:56:39;12.10;41.90
21275;DHT22;36472;52.170;20.884;2022-11-20T04:59:08;12.10;41.80
21275;DHT22;36472;52.170;20.884;2022-11-20T05:01:38;12.10;41.80
21275;DHT22;36472;52.170;20.884;2022-11-20T05:04:07;12.10;41.90
21275;DHT22;36472;52.170;20.884;2022-11-20T05:06:36;12.10;42.00
21275;DHT22;36472;52.170;20.884;2022-11-20T05:09:05;12.20;42.10
21275;DHT22;36472;52.170;20.884;2022-11-20T05:11:33;12.20;42.00
21275;DHT22;36472;52.170;20.884;2022-11-20T05:14:02;12.30;41.80
21275;DHT22;36472;52.170;20.884;2022-11-20T05:16:34;12.30;41.70
21275;DHT22;36472;52.170;20.884;2022-11-20T05:19:05;12.30;41.70
21275;DHT22;36472;52.170;20.884;2022-11-20T05:21:33;12.40;41.60
21275;DHT22;36472;52.170;20.884;2022-11-20T05:24:02;12.40;41.60
21275;DHT22;36472;52.170;20.884;2022-11-20T05:26:31;12.40;41.40
21275;DHT22;36472;52.170;20.884;2022-11-20T05:29:00;12.40;41.30
21275;DHT22;36472;52.170;20.884;2022-11-20T05:31:29;12.40;41.30
21275;DHT22;36472;52.170;20.884;2022-11-20T05:33:58;12.40;41.30
21275;DHT22;36472;52.170;20.884;2022-11-20T05:36:28;12.40;41.20
21275;DHT22;36472;52.170;20.884;2022-11-20T05:38:58;12.40;41.70
21275;DHT22;36472;52.170;20.884;2022-11-20T05:41:28;12.40;41.10
21275;DHT22;36472;52.170;20.884;2022-11-20T05:43:58;12.40;41.10
21275;DHT22;36472;52.170;20.884;2022-11-20T05:46:27;12.30;41.20
21275;DHT22;36472;52.170;20.884;2022-11-20T05:48:57;12.30;41.10
21275;DHT22;36472;52.170;20.884;2022-11-20T05:51:28;12.30;41.10
21275;DHT22;36472;52.170;20.884;2022-11-20T05:53:57;12.30;41.20
21275;DHT22;36472;52.170;20.884;2022-11-20T05:56:25;12.30;41.40
21275;DHT22;36472;52.170;20.884;2022-11-20T05:58:55;12.30;41.30
21275;DHT22;36472;52.170;20.884;2022-11-20T06:01:25;12.30;41.20
21275;DHT22;36472;52.170;20.884;2022-11-20T06:03:55;12.30;41.00
21275;DHT22;36472;52.170;20.884;2022-11-20T06:06:23;12.30;41.20
21275;DHT22;36472;52.170;20.884;2022-11-20T06:08:54;12.30;41.10
21275;DHT22;36472;52.170;20.884;2022-11-20T06:11:25;12.30;41.00
21275;DHT22;36472;52.170;20.884;2022-11-20T06:13:54;12.30;41.10
21275;DHT22;36472;52.170;20.884;2022-11-20T06:16:23;12.30;41.10
21275;DHT22;36472;52.170;20.884;2022-11-20T06:18:52;12.20;41.00
21275;DHT22;36472;52.170;20.884;2022-11-20T06:21:21;12.30;41.10
21275;DHT22;36472;52.170;20.884;2022-11-20T06:23:53;12.20;41.60
21275;DHT22;36472;52.170;20.884;2022-11-20T06:26:24;12.20;40.90
21275;DHT22;36472;52.170;20.884;2022-11-20T06:28:54;12.20;40.90
21275;DHT22;36472;52.170;20.884;2022-11-20T06:31:25;12.20;41.20
21275;DHT22;36472;52.170;20.884;2022-11-20T06:33:55;12.10;41.30
21275;DHT22;36472;52.170;20.884;2022-11-20T06:36:23;12.10;41.20
21275;DHT22;36472;52.170;20.884;2022-11-20T06:38:54;12.10;41.30
21275;DHT22;36472;52.170;20.884;2022-11-20T06:41:22;12.10;41.30
21275;DHT22;36472;52.170;20.884;2022-11-20T06:43:51;12.10;41.30
21275;DHT22;36472;52.170;20.884;2022-11-20T06:46:20;12.10;41.30
21275;DHT22;36472;52.170;20.884;2022-11-20T06:48:49;12.10;41.30
21275;DHT22;36472;52.170;20.884;2022-11-20T06:51:18;12.00;41.30
21275;DHT22;36472;52.170;20.884;2022-11-20T06:53:48;12.00;41.30
21275;DHT22;36472;52.170;20.884;2022-11-20T06:56:18;12.00;41.40
21275;DHT22;36472;52.170;20.884;2022-11-20T06:58:47;12.10;41.50
21275;DHT22;36472;52.170;20.884;2022-11-20T07:01:16;12.00;41.00
21275;DHT22;36472;52.170;20.884;2022-11-20T07:03:45;12.00;41.60
21275;DHT22;36472;52.170;20.884;2022-11-20T07:06:20;12.00;41.50
21275;DHT22;36472;52.170;20.884;2022-11-20T07:08:50;12.00;41.60
21275;DHT22;36472;52.170;20.884;2022-11-20T07:11:21;12.00;41.70
21275;DHT22;36472;52.170;20.884;2022-11-20T07:13:50;12.00;41.70
21275;DHT22;36472;52.170;20.884;2022-11-20T07:16:19;12.00;41.70
21275;DHT22;36472;52.170;20.884;2022-11-20T07:18:47;12.00;41.70
21275;DHT22;36472;52.170;20.884;2022-11-20T07:21:17;12.00;41.70
21275;DHT22;36472;52.170;20.884;2022-11-20T07:23:46;12.00;41.80
21275;DHT22;36472;52.170;20.884;2022-11-20T07:26:16;12.10;41.80
21275;DHT22;36472;52.170;20.884;2022-11-20T07:28:46;12.20;41.70
21275;DHT22;36472;52.170;20.884;2022-11-20T07:31:15;12.20;41.90
21275;DHT22;36472;52.170;20.884;2022-11-20T07:33:46;12.30;41.80
21275;DHT22;36472;52.170;20.884;2022-11-20T07:36:15;12.30;41.70
21275;DHT22;36472;52.170;20.884;2022-11-20T07:38:43;12.40;41.60
21275;DHT22;36472;52.170;20.884;2022-11-20T07:41:12;12.40;41.40
21275;DHT22;36472;52.170;20.884;2022-11-20T07:43:41;12.40;41.10
21275;DHT22;36472;52.170;20.884;2022-11-20T07:46:11;12.20;41.40
21275;DHT22;36472;52.170;20.884;2022-11-20T07:48:40;12.20;41.60
21275;DHT22;36472;52.170;20.884;2022-11-20T07:51:08;12.10;41.60
21275;DHT22;36472;52.170;20.884;2022-11-20T07:53:37;11.80;41.80
21275;DHT22;36472;52.170;20.884;2022-11-20T07:56:06;11.80;42.40
21275;DHT22;36472;52.170;20.884;2022-11-20T07:58:36;11.90;42.60
21275;DHT22;36472;52.170;20.884;2022-11-20T08:01:05;11.90;42.50
21275;DHT22;36472;52.170;20.884;2022-11-20T08:03:37;12.00;42.40
21275;DHT22;36472;52.170;20.884;2022-11-20T08:06:06;11.90;42.40
21275;DHT22;36472;52.170;20.884;2022-11-20T08:08:36;12.00;42.50
21275;DHT22;36472;52.170;20.884;2022-11-20T08:11:09;12.20;42.30
21275;DHT22;36472;52.170;20.884;2022-11-20T08:13:55;12.20;42.20
21275;DHT22;36472;52.170;20.884;2022-11-20T08:16:44;12.30;42.70
21275;DHT22;36472;52.170;20.884;2022-11-20T08:19:17;12.40;42.00
21275;DHT22;36472;52.170;20.884;2022-11-20T08:21:47;12.50;41.90
21275;DHT22;36472;52.170;20.884;2022-11-20T08:24:16;12.60;41.80
21275;DHT22;36472;52.170;20.884;2022-11-20T08:26:44;12.60;41.50
21275;DHT22;36472;52.170;20.884;2022-11-20T08:38:21;13.00;42.20
21275;DHT22;36472;52.170;20.884;2022-11-20T08:40:49;13.30;41.40
21275;DHT22;36472;52.170;20.884;2022-11-20T08:43:32;13.40;41.10
21275;DHT22;36472;52.170;20.884;2022-11-20T08:50:32;13.60;40.70
21275;DHT22;36472;52.170;20.884;2022-11-20T08:53:04;13.70;40.70
21275;DHT22;36472;52.170;20.884;2022-11-20T08:55:35;13.80;40.70
21275;DHT22;36472;52.170;20.884;2022-11-20T08:58:04;13.80;40.30
21275;DHT22;36472;52.170;20.884;2022-11-20T09:00:33;13.70;40.40
21275;DHT22;36472;52.170;20.884;2022-11-20T09:03:02;13.70;40.70
21275;DHT22;36472;52.170;20.884;2022-11-20T09:05:32;13.80;40.60
21275;DHT22;36472;52.170;20.884;2022-11-20T09:08:00;13.80;40.60
21275;DHT22;36472;52.170;20.884;2022-11-20T09:10:29;13.70;40.70
21275;DHT22;36472;52.170;20.884;2022-11-20T09:13:00;13.70;41.00
21275;DHT22;36472;52.170;20.884;2022-11-20T09:15:29;13.70;41.00
21275;DHT22;36472;52.170;20.884;2022-11-20T09:17:59;13.70;41.10
21275;DHT22;36472;52.170;20.884;2022-11-20T09:20:30;13.70;41.20
21275;DHT22;36472;52.170;20.884;2022-11-20T09:22:59;13.70;41.30
21275;DHT22;36472;52.170;20.884;2022-11-20T09:25:28;13.70;41.10
21275;DHT22;36472;52.170;20.884;2022-11-20T09:27:57;13.70;41.30
21275;DHT22;36472;52.170;20.884;2022-11-20T09:30:28;13.70;41.30
21275;DHT22;36472;52.170;20.884;2022-11-20T09:32:58;13.90;41.20
21275;DHT22;36472;52.170;20.884;2022-11-20T09:35:26;13.90;41.20
21275;DHT22;36472;52.170;20.884;2022-11-20T09:37:55;13.90;41.00
21275;DHT22;36472;52.170;20.884;2022-11-20T09:40:26;13.90;41.10
21275;DHT22;36472;52.170;20.884;2022-11-20T09:42:58;14.00;41.00
21275;DHT22;36472;52.170;20.884;2022-11-20T09:46:01;14.10;41.00
21275;DHT22;36472;52.170;20.884;2022-11-20T09:48:45;14.20;41.10
21275;DHT22;36472;52.170;20.884;2022-11-20T09:51:34;14.10;40.80
21275;DHT22;36472;52.170;20.884;2022-11-20T09:54:16;14.00;41.10
21275;DHT22;36472;52.170;20.884;2022-11-20T09:56:49;14.00;42.00
21275;DHT22;36472;52.170;20.884;2022-11-20T09:59:32;13.90;41.50
21275;DHT22;36472;52.170;20.884;2022-11-20T10:02:16;13.80;41.90
21275;DHT22;36472;52.170;20.884;2022-11-20T10:04:57;13.90;42.10
21275;DHT22;36472;52.170;20.884;2022-11-20T10:07:36;14.00;41.90
21275;DHT22;36472;52.170;20.884;2022-11-20T10:14:54;14.30;41.50
21275;DHT22;36472;52.170;20.884;2022-11-20T10:17:48;14.50;41.50
21275;DHT22;36472;52.170;20.884;2022-11-20T10:20:30;14.60;41.50
21275;DHT22;36472;52.170;20.884;2022-11-20T10:23:21;14.60;41.30
21275;DHT22;36472;52.170;20.884;2022-11-20T10:26:04;14.70;41.20
21275;DHT22;36472;52.170;20.884;2022-11-20T10:28:53;14.60;41.20
21275;DHT22;36472;52.170;20.884;2022-11-20T10:31:37;14.50;41.50
21275;DHT22;36472;52.170;20.884;2022-11-20T10:34:18;14.60;41.70
21275;DHT22;36472;52.170;20.884;2022-11-20T10:36:54;14.60;41.60
21275;DHT22;36472;52.170;20.884;2022-11-20T10:39:32;14.60;41.80
21275;DHT22;36472;52.170;20.884;2022-11-20T10:42:08;14.70;41.70
21275;DHT22;36472;52.170;20.884;2022-11-20T10:44:43;14.80;41.60
21275;DHT22;36472;52.170;20.884;2022-11-20T10:47:33;14.90;41.30
21275;DHT22;36472;52.170;20.884;2022-11-20T10:50:08;15.00;41.30
21275;DHT22;36472;52.170;20.884;2022-11-20T10:52:55;15.00;41.20
21275;DHT22;36472;52.170;20.884;2022-11-20T10:55:33;15.00;41.10
21275;DHT22;36472;52.170;20.884;2022-11-20T10:58:14;14.90;41.10
21275;DHT22;36472;52.170;20.884;2022-11-20T11:00:48;15.10;41.10
21275;DHT22;36472;52.170;20.884;2022-11-20T11:03:22;15.10;41.20
21275;DHT22;36472;52.170;20.884;2022-11-20T11:06:00;15.10;40.70
21275;DHT22;36472;52.170;20.884;2022-11-20T11:08:38;15.00;40.80
21275;DHT22;36472;52.170;20.884;2022-11-20T11:11:18;15.00;40.80
21275;DHT22;36472;52.170;20.884;2022-11-20T11:13:51;14.90;41.00
21275;DHT22;36472;52.170;20.884;2022-11-20T11:16:21;15.00;41.20
21275;DHT22;36472;52.170;20.884;2022-11-20T11:19:02;15.10;41.00
21275;DHT22;36472;52.170;20.884;2022-11-20T11:21:33;15.20;40.90
21275;DHT22;36472;52.170;20.884;2022-11-20T11:24:05;15.40;40.80
21275;DHT22;36472;52.170;20.884;2022-11-20T11:27:12;15.40;40.70
21275;DHT22;36472;52.170;20.884;2022-11-20T11:29:45;15.40;40.50
21275;DHT22;36472;52.170;20.884;2022-11-20T11:36:56;15.70;40.50
21275;DHT22;36472;52.170;20.884;2022-11-20T11:39:27;15.70;39.70
21275;DHT22;36472;52.170;20.884;2022-11-20T11:41:59;15.60;40.70
21275;DHT22;36472;52.170;20.884;2022-11-20T11:44:31;15.40;40.00
21275;DHT22;36472;52.170;20.884;2022-11-20T11:47:23;15.40;40.30
21275;DHT22;36472;52.170;20.884;2022-11-20T11:50:02;15.40;40.30
21275;DHT22;36472;52.170;20.884;2022-11-20T11:52:48;15.40;40.40
21275;DHT22;36472;52.170;20.884;2022-11-20T11:55:30;15.60;40.40
21275;DHT22;36472;52.170;20.884;2022-11-20T11:58:20;15.70;40.40
21275;DHT22;36472;52.170;20.884;2022-11-20T12:01:17;15.70;40.00
21275;DHT22;36472;52.170;20.884;2022-11-20T12:03:58;15.80;40.10
21275;DHT22;36472;52.170;20.884;2022-11-20T12:06:33;16.00;39.90
21275;DHT22;36472;52.170;20.884;2022-11-20T12:09:09;15.90;39.00
21275;DHT22;36472;52.170;20.884;2022-11-20T12:11:45;15.90;39.40
21275;DHT22;36472;52.170;20.884;2022-11-20T12:14:24;16.10;39.60
21275;DHT22;36472;52.170;20.884;2022-11-20T12:17:00;16.20;39.20
21275;DHT22;36472;52.170;20.884;2022-11-20T12:19:31;16.30;40.00
21275;DHT22;36472;52.170;20.884;2022-11-20T12:22:09;16.40;39.10
21275;DHT22;36472;52.170;20.884;2022-11-20T12:24:52;16.50;39.00
21275;DHT22;36472;52.170;20.884;2022-11-20T12:27:47;16.50;38.90
21275;DHT22;36472;52.170;20.884;2022-11-20T12:30:32;16.50;38.80
21275;DHT22;36472;52.170;20.884;2022-11-20T12:33:17;16.50;38.80
21275;DHT22;36472;52.170;20.884;2022-11-20T12:36:17;16.50;38.80
21275;DHT22;36472;52.170;20.884;2022-11-20T12:39:02;16.60;38.70
21275;DHT22;36472;52.170;20.884;2022-11-20T12:42:01;16.50;38.80
21275;DHT22;36472;52.170;20.884;2022-11-20T12:45:14;16.60;38.80
21275;DHT22;36472;52.170;20.884;2022-11-20T12:48:11;16.40;39.00
21275;DHT22;36472;52.170;20.884;2022-11-20T12:51:05;16.20;39.40
21275;DHT22;36472;52.170;20.884;2022-11-20T12:53:59;16.20;39.50
21275;DHT22;36472;52.170;20.884;2022-11-20T12:56:42;16.20;39.40
21275;DHT22;36472;52.170;20.884;2022-11-20T12:59:32;16.30;39.40
21275;DHT22;36472;52.170;20.884;2022-11-20T13:02:23;16.30;39.40
21275;DHT22;36472;52.170;20.884;2022-11-20T13:05:05;16.30;39.50
21275;DHT22;36472;52.170;20.884;2022-11-20T13:07:46;16.30;39.40
21275;DHT22;36472;52.170;20.884;2022-11-20T13:10:21;16.30;39.30
21275;DHT22;36472;52.170;20.884;2022-11-20T13:12:59;16.30;39.20
21275;DHT22;36472;52.170;20.884;2022-11-20T13:15:40;16.40;39.30
21275;DHT22;36472;52.170;20.884;2022-11-20T13:18:16;16.40;39.20
21275;DHT22;36472;52.170;20.884;2022-11-20T13:20:46;16.40;40.10
21275;DHT22;36472;52.170;20.884;2022-11-20T13:23:25;16.50;40.20
21275;DHT22;36472;52.170;20.884;2022-11-20T13:26:16;16.50;39.30
21275;DHT22;36472;52.170;20.884;2022-11-20T13:28:59;16.50;39.20
21275;DHT22;36472;52.170;20.884;2022-11-20T13:31:34;16.50;39.30
21275;DHT22;36472;52.170;20.884;2022-11-20T13:34:06;16.40;39.00
21275;DHT22;36472;52.170;20.884;2022-11-20T13:36:49;16.30;39.10
21275;DHT22;36472;52.170;20.884;2022-11-20T13:39:25;16.30;39.30
21275;DHT22;36472;52.170;20.884;2022-11-20T13:41:56;16.20;39.40
21275;DHT22;36472;52.170;20.884;2022-11-20T13:44:31;16.20;39.70
21275;DHT22;36472;52.170;20.884;2022-11-20T13:47:20;16.30;39.90
21275;DHT22;36472;52.170;20.884;2022-11-20T13:49:51;16.20;39.90
21275;DHT22;36472;52.170;20.884;2022-11-20T13:52:35;16.20;39.80
21275;DHT22;36472;52.170;20.884;2022-11-20T13:55:19;16.10;39.90
21275;DHT22;36472;52.170;20.884;2022-11-20T13:58:06;16.00;40.00
21275;DHT22;36472;52.170;20.884;2022-11-20T14:00:51;16.10;40.10
21275;DHT22;36472;52.170;20.884;2022-11-20T14:03:29;16.00;40.20
21275;DHT22;36472;52.170;20.884;2022-11-20T14:06:26;16.10;40.30
21275;DHT22;36472;52.170;20.884;2022-11-20T14:08:57;16.10;40.30
21275;DHT22;36472;52.170;20.884;2022-11-20T14:11:27;16.20;40.20
21275;DHT22;36472;52.170;20.884;2022-11-20T14:13:59;16.20;40.00
21275;DHT22;36472;52.170;20.884;2022-11-20T14:16:31;16.20;40.10
21275;DHT22;36472;52.170;20.884;2022-11-20T14:22:10;16.20;40.10
21275;DHT22;36472;52.170;20.884;2022-11-20T14:24:46;16.20;40.30
21275;DHT22;36472;52.170;20.884;2022-11-20T14:27:17;16.30;40.30
21275;DHT22;36472;52.170;20.884;2022-11-20T14:29:49;16.30;40.40
21275;DHT22;36472;52.170;20.884;2022-11-20T14:32:28;16.30;40.40
21275;DHT22;36472;52.170;20.884;2022-11-20T14:35:02;16.30;40.50
21275;DHT22;36472;52.170;20.884;2022-11-20T14:37:39;16.30;40.50
21275;DHT22;36472;52.170;20.884;2022-11-20T14:40:24;16.30;40.40
21275;DHT22;36472;52.170;20.884;2022-11-20T14:42:55;16.30;40.50
21275;DHT22;36472;52.170;20.884;2022-11-20T14:45:26;16.30;40.50
21275;DHT22;36472;52.170;20.884;2022-11-20T14:47:56;16.40;40.60
21275;DHT22;36472;52.170;20.884;2022-11-20T14:50:27;16.30;40.60
21275;DHT22;36472;52.170;20.884;2022-11-20T14:52:59;16.30;40.70
21275;DHT22;36472;52.170;20.884;2022-11-20T14:55:31;16.30;40.80
21275;DHT22;36472;52.170;20.884;2022-11-20T14:58:02;16.40;40.70
21275;DHT22;36472;52.170;20.884;2022-11-20T15:00:33;16.40;40.50
21275;DHT22;36472;52.170;20.884;2022-11-20T15:03:15;16.40;40.50
21275;DHT22;36472;52.170;20.884;2022-11-20T15:05:45;16.40;40.70
21275;DHT22;36472;52.170;20.884;2022-11-20T15:08:17;16.30;41.00
21275;DHT22;36472;52.170;20.884;2022-11-20T15:10:47;16.20;41.40
21275;DHT22;36472;52.170;20.884;2022-11-20T15:13:25;16.10;41.80
21275;DHT22;36472;52.170;20.884;2022-11-20T15:15:58;16.20;42.00
21275;DHT22;36472;52.170;20.884;2022-11-20T15:18:31;16.10;42.20
21275;DHT22;36472;52.170;20.884;2022-11-20T15:21:03;16.00;42.40
21275;DHT22;36472;52.170;20.884;2022-11-20T15:23:39;15.90;42.70
21275;DHT22;36472;52.170;20.884;2022-11-20T15:26:10;15.90;42.90
21275;DHT22;36472;52.170;20.884;2022-11-20T15:28:47;15.80;42.90
21275;DHT22;36472;52.170;20.884;2022-11-20T15:31:19;15.80;43.00
21275;DHT22;36472;52.170;20.884;2022-11-20T15:33:49;15.70;43.00
21275;DHT22;36472;52.170;20.884;2022-11-20T15:36:18;15.70;43.20
21275;DHT22;36472;52.170;20.884;2022-11-20T15:38:48;15.60;43.20
21275;DHT22;36472;52.170;20.884;2022-11-20T15:41:17;15.50;43.20
21275;DHT22;36472;52.170;20.884;2022-11-20T15:43:46;15.40;43.40
21275;DHT22;36472;52.170;20.884;2022-11-20T15:46:16;15.40;43.50
21275;DHT22;36472;52.170;20.884;2022-11-20T15:48:53;15.30;43.50
21275;DHT22;36472;52.170;20.884;2022-11-20T15:51:26;15.30;43.50
21275;DHT22;36472;52.170;20.884;2022-11-20T15:53:58;15.30;43.60
21275;DHT22;36472;52.170;20.884;2022-11-20T15:56:27;15.20;43.50
21275;DHT22;36472;52.170;20.884;2022-11-20T15:58:56;15.20;43.60
21275;DHT22;36472;52.170;20.884;2022-11-20T16:01:25;15.10;43.70
21275;DHT22;36472;52.170;20.884;2022-11-20T16:03:53;15.10;43.80
21275;DHT22;36472;52.170;20.884;2022-11-20T16:06:22;15.00;43.70
21275;DHT22;36472;52.170;20.884;2022-11-20T16:08:51;15.00;43.80
21275;DHT22;36472;52.170;20.884;2022-11-20T16:11:21;14.90;43.80
21275;DHT22;36472;52.170;20.884;2022-11-20T16:13:50;14.90;44.00
21275;DHT22;36472;52.170;20.884;2022-11-20T16:16:37;14.80;43.90
21275;DHT22;36472;52.170;20.884;2022-11-20T16:19:10;14.80;44.00
21275;DHT22;36472;52.170;20.884;2022-11-20T16:21:39;14.80;44.10